Time;durP1;ratioP1;P1;durP2;ratioP2;P2;SDS_P1;SDS_P2;PMS_P1;PMS_P2;Temp;Humidity;BMP_temperature;BMP_pressure;BME280_temperature;BME280_humidity;BME280_pressure;Samples;Min_cycle;Max_cycle;Signal;HPM_P1;HPM_P2
2023/10/22 00:00:12;;;;;;;2.50;1.47;;;11.20;1.00;;;;;;4986829;28;20474;-76
2023/10/22 00:02:37;;;;;;;2.97;1.87;;;11.10;1.00;;;;;;4987733;28;20191;-79
2023/10/22 00:05:04;;;;;;;4.80;1.87;;;11.00;1.00;;;;;;4987810;28;20641;-78
2023/10/22 00:07:30;;;;;;;4.13;1.90;;;;;;;;;;5001030;28;20270;-76
2023/10/22 00:09:56;;;;;;;2.70;2.00;;;11.00;1.00;;;;;;4987564;28;20442;-77
2023/10/22 00:12:21;;;;;;;2.40;1.60;;;11.00;1.00;;;;;;4987701;28;20449;-76
2023/10/22 00:14:47;;;;;;;2.00;1.50;;;11.00;1.00;;;;;;4987693;28;20206;-76
2023/10/22 00:17:13;;;;;;;2.90;1.50;;;11.00;1.00;;;;;;4991665;28;20210;-77
2023/10/22 00:19:38;;;;;;;3.20;1.90;;;10.90;1.00;;;;;;4989918;28;20183;-77
2023/10/22 00:22:04;;;;;;;6.23;1.70;;;10.90;1.00;;;;;;4983190;28;20445;-79
2023/10/22 00:24:31;;;;;;;2.50;1.63;;;10.90;1.00;;;;;;5006277;28;20194;-77
2023/10/22 00:26:57;;;;;;;2.80;1.70;;;10.90;1.00;;;;;;4990966;28;20289;-78
2023/10/22 00:29:23;;;;;;;2.53;1.53;;;;;;;;;;4990241;28;20934;-78
2023/10/22 00:31:49;;;;;;;3.80;1.90;;;11.00;1.00;;;;;;4987872;28;20422;-76
2023/10/22 00:34:15;;;;;;;2.20;1.67;;;11.30;1.00;;;;;;4991197;28;20564;-79
2023/10/22 00:36:41;;;;;;;3.67;1.40;;;11.40;1.00;;;;;;4989765;28;20319;-76
2023/10/22 00:39:07;;;;;;;3.97;1.70;;;11.30;1.00;;;;;;4990393;28;20207;-76
2023/10/22 00:41:32;;;;;;;3.33;1.40;;;11.50;1.00;;;;;;4990699;28;20480;-76
2023/10/22 00:43:58;;;;;;;3.27;1.67;;;11.80;1.00;;;;;;4990074;28;20201;-77
2023/10/22 00:46:25;;;;;;;2.73;1.70;;;12.00;1.00;;;;;;5005884;28;20211;-79
2023/10/22 00:48:52;;;;;;;2.07;1.40;;;12.00;1.00;;;;;;4990142;28;20183;-77
2023/10/22 00:51:18;;;;;;;2.87;1.50;;;12.10;1.00;;;;;;5004814;28;20450;-76
2023/10/22 00:53:45;;;;;;;2.33;1.60;;;11.90;1.00;;;;;;4991651;28;20469;-79
2023/10/22 00:56:11;;;;;;;4.50;1.60;;;11.90;1.00;;;;;;4990171;28;20462;-76
2023/10/22 00:58:37;;;;;;;2.97;1.60;;;11.90;1.00;;;;;;4991294;28;20434;-77
2023/10/22 01:01:07;;;;;;;4.20;1.10;;;11.90;1.00;;;;;;5004313;28;20438;-77
2023/10/22 01:03:33;;;;;;;2.40;1.30;;;12.00;1.00;;;;;;4990571;28;20208;-76
2023/10/22 01:05:58;;;;;;;2.23;1.70;;;11.90;1.00;;;;;;4989574;28;20486;-81
2023/10/22 01:08:24;;;;;;;3.93;1.60;;;11.90;1.00;;;;;;4991215;28;20489;-79
2023/10/22 01:10:50;;;;;;;3.20;1.50;;;11.90;1.00;;;;;;4990589;28;20760;-78
2023/10/22 01:13:15;;;;;;;2.37;1.53;;;11.90;1.00;;;;;;4990434;28;20195;-76
2023/10/22 01:15:41;;;;;;;3.70;1.63;;;12.40;1.00;;;;;;4989826;28;20224;-77
2023/10/22 01:18:07;;;;;;;2.67;1.40;;;12.20;1.00;;;;;;4990137;28;20246;-77
2023/10/22 01:20:33;;;;;;;2.00;1.20;;;12.20;1.00;;;;;;4988773;28;20234;-76
2023/10/22 01:22:59;;;;;;;2.67;1.47;;;12.30;1.00;;;;;;4989798;28;20191;-78
2023/10/22 01:25:25;;;;;;;3.50;1.77;;;12.30;1.00;;;;;;4989536;28;20485;-80
2023/10/22 01:27:50;;;;;;;2.60;1.60;;;12.30;1.00;;;;;;5005488;28;21112;-76
2023/10/22 01:30:16;;;;;;;2.10;1.37;;;12.30;1.00;;;;;;4989705;28;20209;-77
2023/10/22 01:32:41;;;;;;;3.40;1.53;;;12.30;1.00;;;;;;5005223;28;20245;-78
2023/10/22 01:35:08;;;;;;;3.70;1.40;;;12.30;1.00;;;;;;4989315;28;20660;-78
2023/10/22 01:37:36;;;;;;;3.57;1.40;;;;;;;;;;4990729;28;20175;-79
2023/10/22 01:40:03;;;;;;;2.43;1.60;;;12.20;1.00;;;;;;4987493;28;20988;-77
2023/10/22 01:42:29;;;;;;;1.67;1.23;;;12.10;1.00;;;;;;4989780;28;20533;-77
2023/10/22 01:44:55;;;;;;;3.97;1.37;;;12.10;1.00;;;;;;5003640;28;21687;-77
2023/10/22 01:47:20;;;;;;;2.90;1.30;;;12.00;1.00;;;;;;4990279;28;20457;-78
2023/10/22 01:49:47;;;;;;;2.13;1.23;;;12.00;1.00;;;;;;4989533;28;20846;-80
2023/10/22 01:52:12;;;;;;;1.53;1.20;;;11.90;1.00;;;;;;4988692;28;20187;-80
2023/10/22 01:54:39;;;;;;;3.97;1.37;;;;;;;;;;5003639;28;20988;-76
2023/10/22 01:57:04;;;;;;;2.10;1.40;;;11.70;1.00;;;;;;4988997;28;20730;-80
2023/10/22 01:59:30;;;;;;;2.93;1.60;;;11.50;1.00;;;;;;4989860;28;20537;-77
2023/10/22 02:01:56;;;;;;;1.73;1.37;;;11.50;1.00;;;;;;4987881;28;20222;-74
2023/10/22 02:04:22;;;;;;;1.93;1.30;;;11.40;1.00;;;;;;4989232;28;20190;-76
2023/10/22 02:06:48;;;;;;;2.67;1.70;;;;;;;;;;4989682;28;20466;-77
2023/10/22 02:09:15;;;;;;;2.50;1.50;;;11.40;1.00;;;;;;4988870;28;20850;-77
2023/10/22 02:11:40;;;;;;;3.20;1.60;;;11.40;1.00;;;;;;4989600;28;20214;-76
2023/10/22 02:14:06;;;;;;;4.80;1.50;;;11.50;1.00;;;;;;4989404;28;20623;-76
2023/10/22 02:16:31;;;;;;;2.97;1.80;;;11.50;1.00;;;;;;4989468;28;20689;-76
2023/10/22 02:18:57;;;;;;;7.20;1.80;;;11.40;1.00;;;;;;4988775;28;20203;-74
2023/10/22 02:21:26;;;;;;;4.77;1.60;;;11.60;1.00;;;;;;4988557;28;20634;-76
2023/10/22 02:23:52;;;;;;;2.30;1.37;;;11.50;1.00;;;;;;4988601;28;20198;-76
2023/10/22 02:26:18;;;;;;;2.13;1.30;;;11.50;1.00;;;;;;4989171;28;20466;-79
2023/10/22 02:28:44;;;;;;;3.33;1.60;;;11.50;1.00;;;;;;4989529;28;20438;-78
2023/10/22 02:31:10;;;;;;;3.50;1.60;;;11.50;1.00;;;;;;5002927;28;20450;-76
2023/10/22 02:33:37;;;;;;;2.30;1.30;;;11.50;1.00;;;;;;4989172;28;20215;-76
2023/10/22 02:36:06;;;;;;;3.87;1.70;;;11.40;1.00;;;;;;4988899;28;20223;-78
2023/10/22 02:38:33;;;;;;;3.93;1.50;;;11.40;1.00;;;;;;5003839;28;20446;-76
2023/10/22 02:40:59;;;;;;;2.50;1.60;;;11.40;1.00;;;;;;4988346;28;20537;-73
2023/10/22 02:43:25;;;;;;;3.20;1.40;;;11.30;1.00;;;;;;5003140;28;20533;-79
2023/10/22 02:45:52;;;;;;;2.80;1.40;;;11.30;1.00;;;;;;4988461;28;20697;-77
2023/10/22 02:48:18;;;;;;;4.87;1.50;;;11.20;1.00;;;;;;4988715;28;20446;-76
2023/10/22 02:50:45;;;;;;;3.83;1.50;;;;;;;;;;4987920;28;20446;-76
2023/10/22 02:53:10;;;;;;;3.53;1.60;;;11.00;1.00;;;;;;4987745;28;20191;-77
2023/10/22 02:55:36;;;;;;;1.50;1.33;;;11.00;1.00;;;;;;4987519;28;20528;-77
2023/10/22 02:58:01;;;;;;;2.33;1.60;;;10.80;1.00;;;;;;4988567;28;20195;-77
2023/10/22 03:00:27;;;;;;;3.57;1.50;;;10.70;1.00;;;;;;4988358;28;20202;-77
2023/10/22 03:02:53;;;;;;;4.17;1.50;;;10.70;1.00;;;;;;4988308;28;20258;-76
2023/10/22 03:05:18;;;;;;;2.33;1.77;;;10.50;1.00;;;;;;4988504;28;20222;-76
2023/10/22 03:07:44;;;;;;;1.93;1.40;;;10.60;1.00;;;;;;4988643;28;20187;-78
2023/10/22 03:10:10;;;;;;;3.50;1.60;;;10.50;1.00;;;;;;4987617;28;20196;-81
2023/10/22 03:12:36;;;;;;;2.40;1.60;;;9.00;1.00;;;;;;4987840;28;20198;-77
2023/10/22 03:15:01;;;;;;;3.87;1.80;;;10.30;1.00;;;;;;4987412;28;20245;-76
2023/10/22 03:17:27;;;;;;;3.23;1.73;;;10.30;1.00;;;;;;5003645;28;20470;-77
2023/10/22 03:19:53;;;;;;;5.50;1.60;;;10.20;1.00;;;;;;4989134;28;20547;-77
2023/10/22 03:22:19;;;;;;;8.40;1.73;;;10.10;1.00;;;;;;4987381;28;20278;-76
2023/10/22 03:24:51;;;;;;;2.60;1.63;;;10.10;1.00;;;;;;4988801;28;20521;-79
2023/10/22 03:27:17;;;;;;;7.23;1.77;;;10.10;1.00;;;;;;4987178;28;20226;-77
2023/10/22 03:29:46;;;;;;;6.60;1.53;;;10.10;1.00;;;;;;4988600;28;20473;-77
2023/10/22 03:32:11;;;;;;;2.47;1.40;;;10.10;1.00;;;;;;4987532;28;20445;-76
2023/10/22 03:34:37;;;;;;;4.07;1.80;;;10.10;1.00;;;;;;4988346;28;20540;-77
2023/10/22 03:37:08;;;;;;;2.67;1.57;;;10.00;1.00;;;;;;4988754;28;20207;-77
2023/10/22 03:39:34;;;;;;;2.40;1.70;;;10.00;1.00;;;;;;4986750;28;20182;-77
2023/10/22 03:42:00;;;;;;;3.27;1.60;;;10.00;1.00;;;;;;4988613;28;20452;-76
2023/10/22 03:44:26;;;;;;;2.70;1.50;;;9.90;1.00;;;;;;4987762;28;20438;-75
2023/10/22 03:46:51;;;;;;;6.43;1.60;;;9.90;1.00;;;;;;4988166;28;20270;-77
2023/10/22 03:49:17;;;;;;;1.90;1.40;;;9.90;1.00;;;;;;4988649;28;20499;-78
2023/10/22 03:51:43;;;;;;;6.77;1.70;;;9.80;1.00;;;;;;4990432;28;20195;-76
2023/10/22 03:54:08;;;;;;;3.53;1.60;;;9.90;1.00;;;;;;5007360;28;20242;-76
2023/10/22 03:56:34;;;;;;;4.37;2.33;;;9.90;1.00;;;;;;4991209;28;20211;-79
2023/10/22 03:59:00;;;;;;;4.17;1.70;;;9.90;1.00;;;;;;4992667;28;20185;-76
2023/10/22 04:01:26;;;;;;;2.30;1.50;;;10.00;1.00;;;;;;4991051;28;20183;-76
2023/10/22 04:03:52;;;;;;;2.67;1.50;;;9.90;1.00;;;;;;4992289;28;20449;-77
2023/10/22 04:06:17;;;;;;;3.57;1.50;;;9.90;1.00;;;;;;4990315;28;20261;-77
2023/10/22 04:08:43;;;;;;;4.13;2.00;;;;;;;;;;4994129;28;20186;-77
2023/10/22 04:11:09;;;;;;;6.73;1.60;;;9.80;1.00;;;;;;4996899;28;20202;-80
2023/10/22 04:13:34;;;;;;;4.27;1.70;;;9.80;1.00;;;;;;5015591;28;20269;-76
2023/10/22 04:16:00;;;;;;;3.00;1.67;;;9.80;1.00;;;;;;5015621;28;20242;-77
2023/10/22 04:18:25;;;;;;;2.60;1.70;;;9.60;1.00;;;;;;4992691;28;20195;-79
2023/10/22 04:20:51;;;;;;;2.07;1.47;;;9.70;1.00;;;;;;4998776;28;20792;-78
2023/10/22 04:23:17;;;;;;;2.80;1.70;;;;;;;;;;4999368;28;20191;-77
2023/10/22 04:25:45;;;;;;;1.80;1.50;;;;;;;;;;5015237;28;20206;-78
2023/10/22 04:28:11;;;;;;;4.33;1.60;;;9.60;1.00;;;;;;5001355;28;20971;-77
2023/10/22 04:30:38;;;;;;;3.93;1.80;;;9.60;1.00;;;;;;4997591;28;20470;-77
2023/10/22 04:33:05;;;;;;;3.73;1.70;;;9.70;1.00;;;;;;5000791;28;20442;-80
2023/10/22 04:35:32;;;;;;;4.50;1.60;;;9.90;1.00;;;;;;4999382;28;20748;-79
2023/10/22 04:37:58;;;;;;;2.27;1.57;;;9.90;1.00;;;;;;4999592;28;20450;-81
2023/10/22 04:40:26;;;;;;;3.73;1.73;;;10.00;1.00;;;;;;4994085;28;20453;-80
2023/10/22 04:42:56;;;;;;;4.97;1.80;;;10.10;1.00;;;;;;4998302;28;20752;-77
2023/10/22 04:45:21;;;;;;;2.30;1.50;;;10.10;1.00;;;;;;4993233;28;20458;-76
2023/10/22 04:47:47;;;;;;;2.57;1.50;;;10.10;1.00;;;;;;4989969;28;20493;-78
2023/10/22 04:50:12;;;;;;;1.47;1.13;;;10.10;1.00;;;;;;4989861;28;20191;-76
2023/10/22 04:52:38;;;;;;;8.73;2.10;;;10.20;1.00;;;;;;4989718;28;20187;-76
2023/10/22 04:55:03;;;;;;;4.07;1.77;;;10.30;1.00;;;;;;4990097;28;20585;-77
2023/10/22 04:57:29;;;;;;;3.30;1.30;;;10.30;1.00;;;;;;4990386;28;20202;-77
2023/10/22 04:59:55;;;;;;;2.97;1.30;;;10.40;1.00;;;;;;5005735;28;20293;-76
2023/10/22 05:02:21;;;;;;;5.30;1.57;;;10.50;1.00;;;;;;5003049;28;20698;-79
2023/10/22 05:04:47;;;;;;;3.87;1.27;;;10.50;1.00;;;;;;4991244;28;20476;-77
2023/10/22 05:07:13;;;;;;;1.70;1.10;;;10.50;1.00;;;;;;4989147;28;20207;-76
2023/10/22 05:09:39;;;;;;;4.07;1.53;;;10.50;1.00;;;;;;5005138;28;20443;-79
2023/10/22 05:12:05;;;;;;;1.57;1.47;;;10.50;1.00;;;;;;4989495;28;20996;-77
2023/10/22 05:14:31;;;;;;;3.63;1.70;;;10.50;1.00;;;;;;4987947;28;20910;-77
2023/10/22 05:16:57;;;;;;;3.93;1.60;;;10.50;1.00;;;;;;4987613;28;20462;-77
2023/10/22 05:19:22;;;;;;;2.17;1.40;;;10.40;1.00;;;;;;5004327;28;20187;-76
2023/10/22 05:21:48;;;;;;;3.50;1.73;;;10.40;1.00;;;;;;4988990;28;20198;-78
2023/10/22 05:24:13;;;;;;;6.53;1.80;;;10.40;1.00;;;;;;4990835;28;20221;-78
2023/10/22 05:26:40;;;;;;;2.87;1.73;;;10.30;1.00;;;;;;4988803;28;20230;-76
2023/10/22 05:29:06;;;;;;;1.70;1.57;;;10.30;1.00;;;;;;4989862;28;20229;-77
2023/10/22 05:31:32;;;;;;;2.83;1.40;;;;;;;;;;4985869;28;20512;-78
2023/10/22 05:33:58;;;;;;;3.53;2.10;;;10.10;1.00;;;;;;4987474;28;20829;-75
2023/10/22 05:36:25;;;;;;;4.07;1.60;;;10.10;1.00;;;;;;5003997;28;20286;-77
2023/10/22 05:38:50;;;;;;;3.40;1.57;;;10.00;1.00;;;;;;4990524;28;20237;-77
2023/10/22 05:41:27;;;;;;;3.17;1.53;;;10.00;1.00;;;;;;4989761;28;20438;-78
2023/10/22 05:44:00;;;;;;;4.10;1.70;;;10.00;1.00;;;;;;4989040;28;20194;-77
2023/10/22 05:46:27;;;;;;;2.57;1.53;;;9.90;1.00;;;;;;4989740;28;20481;-76
2023/10/22 05:48:53;;;;;;;3.47;1.67;;;9.90;1.00;;;;;;4985102;28;20916;-77
2023/10/22 05:51:19;;;;;;;3.00;1.40;;;9.90;1.00;;;;;;4984701;28;20446;-74
2023/10/22 05:53:45;;;;;;;2.30;1.63;;;10.00;1.00;;;;;;5004617;28;21022;-76
2023/10/22 05:56:11;;;;;;;1.97;1.47;;;10.00;1.00;;;;;;4987381;28;20215;-76
2023/10/22 05:58:38;;;;;;;2.30;1.63;;;10.10;1.00;;;;;;4987670;28;20770;-75
2023/10/22 06:01:04;;;;;;;2.20;1.50;;;10.30;1.00;;;;;;4985458;28;20186;-77
2023/10/22 06:03:29;;;;;;;1.90;1.47;;;10.30;1.00;;;;;;4987470;28;20533;-81
2023/10/22 06:05:55;;;;;;;6.53;2.10;;;10.40;1.00;;;;;;4988850;28;20234;-75
2023/10/22 06:08:21;;;;;;;4.60;1.80;;;10.50;1.00;;;;;;4988095;28;20574;-77
2023/10/22 06:10:46;;;;;;;5.23;1.83;;;10.60;1.00;;;;;;4987761;28;20273;-76
2023/10/22 06:13:12;;;;;;;3.33;1.90;;;10.70;1.00;;;;;;4987422;28;20581;-76
2023/10/22 06:15:40;;;;;;;2.17;1.53;;;11.20;1.00;;;;;;4988756;28;20866;-76
2023/10/22 06:18:06;;;;;;;1.93;1.73;;;10.90;1.00;;;;;;4989415;28;20194;-76
2023/10/22 06:20:36;;;;;;;8.57;1.63;;;11.10;1.00;;;;;;5003183;28;20450;-73
2023/10/22 06:23:03;;;;;;;6.10;2.80;;;11.20;1.00;;;;;;4988793;28;20545;-77
2023/10/22 06:25:31;;;;;;;11.10;3.13;;;11.30;1.00;;;;;;4987576;28;20476;-78
2023/10/22 06:27:58;;;;;;;3.70;2.40;;;11.40;1.00;;;;;;4993194;28;20509;-79
2023/10/22 06:30:25;;;;;;;6.80;1.87;;;11.50;1.00;;;;;;4990796;28;20504;-78
2023/10/22 06:32:57;;;;;;;5.10;2.07;;;11.60;1.00;;;;;;4988556;28;20449;-74
2023/10/22 06:35:25;;;;;;;2.00;1.30;;;11.70;1.00;;;;;;4988333;28;21184;-77
2023/10/22 06:37:51;;;;;;;2.80;1.00;;;11.80;1.00;;;;;;4988847;28;20802;-76
2023/10/22 06:40:18;;;;;;;4.03;1.37;;;11.90;1.00;;;;;;4989293;28;20496;-76
2023/10/22 06:42:43;;;;;;;4.13;1.20;;;12.10;1.00;;;;;;4988006;28;20478;-78
2023/10/22 06:45:09;;;;;;;3.17;1.43;;;12.20;1.00;;;;;;4985366;28;20826;-74
2023/10/22 06:47:39;;;;;;;1.90;1.20;;;12.30;1.00;;;;;;4988208;28;20190;-75
2023/10/22 06:50:07;;;;;;;2.33;1.40;;;12.50;1.00;;;;;;4988540;28;20496;-75
2023/10/22 06:52:33;;;;;;;3.13;0.97;;;12.50;1.00;;;;;;4988533;28;20450;-77
2023/10/22 06:54:59;;;;;;;2.30;1.00;;;12.70;1.00;;;;;;4988135;28;20601;-76
2023/10/22 06:57:24;;;;;;;2.73;1.23;;;12.70;1.00;;;;;;4987267;28;20193;-75
2023/10/22 06:59:55;;;;;;;1.97;1.27;;;12.60;1.00;;;;;;4987375;28;20217;-76
2023/10/22 07:02:22;;;;;;;1.90;1.10;;;12.80;1.00;;;;;;4986702;28;20182;-76
2023/10/22 07:04:55;;;;;;;1.60;1.20;;;12.80;1.00;;;;;;4987189;28;20468;-75
2023/10/22 07:07:21;;;;;;;2.97;1.17;;;12.80;1.00;;;;;;4987913;28;20917;-77
2023/10/22 07:09:47;;;;;;;1.97;1.20;;;12.80;1.00;;;;;;4988188;28;20465;-79
2023/10/22 07:12:14;;;;;;;3.30;1.30;;;14.30;1.00;;;;;;4987345;28;20987;-77
2023/10/22 07:14:40;;;;;;;1.63;1.33;;;;;;;;;;4995354;28;20206;-77
2023/10/22 07:17:06;;;;;;;3.63;1.00;;;;;;;;;;4990251;28;20999;-76
2023/10/22 07:19:31;;;;;;;4.60;1.70;;;12.80;1.00;;;;;;4989529;28;20754;-78
2023/10/22 07:21:57;;;;;;;3.93;1.40;;;12.90;1.00;;;;;;4989746;28;20419;-76
2023/10/22 07:24:23;;;;;;;3.37;1.37;;;;;;;;;;4989649;28;20187;-75
2023/10/22 07:26:49;;;;;;;5.23;1.50;;;12.70;1.00;;;;;;4993735;28;20211;-75
2023/10/22 07:29:15;;;;;;;2.90;1.13;;;;;;;;;;4989789;28;20457;-77
2023/10/22 07:31:43;;;;;;;3.20;1.20;;;12.70;1.00;;;;;;4988832;28;20441;-76
2023/10/22 07:34:09;;;;;;;2.03;1.10;;;12.70;1.00;;;;;;4988584;28;20469;-75
2023/10/22 07:36:35;;;;;;;5.50;1.60;;;12.70;1.00;;;;;;5006501;28;20971;-77
2023/10/22 07:39:00;;;;;;;1.80;1.30;;;12.80;1.00;;;;;;4996417;28;20257;-76
2023/10/22 07:41:26;;;;;;;2.60;1.30;;;;;;;;;;4986311;28;20606;-76
2023/10/22 07:43:52;;;;;;;3.00;1.40;;;12.70;1.00;;;;;;4993628;28;20624;-76
2023/10/22 07:46:17;;;;;;;5.33;1.60;;;12.60;1.00;;;;;;4988357;28;20503;-75
2023/10/22 07:48:44;;;;;;;4.73;1.40;;;12.60;1.00;;;;;;4987631;28;20278;-76
2023/10/22 07:51:10;;;;;;;3.33;1.53;;;12.60;1.00;;;;;;5002972;28;20277;-75
2023/10/22 07:53:36;;;;;;;3.37;1.57;;;12.60;1.00;;;;;;4988607;28;20599;-75
2023/10/22 07:56:02;;;;;;;4.13;2.00;;;;;;;;;;4987843;28;20466;-76
2023/10/22 07:58:28;;;;;;;2.37;1.40;;;12.70;1.00;;;;;;5003763;28;20215;-75
2023/10/22 08:00:54;;;;;;;3.50;1.30;;;11.40;1.00;;;;;;4988406;28;20488;-75
2023/10/22 08:03:19;;;;;;;5.90;1.83;;;12.80;1.00;;;;;;4988429;28;20450;-75
2023/10/22 08:05:45;;;;;;;2.40;1.70;;;12.80;1.00;;;;;;4989862;28;20203;-75
2023/10/22 08:08:10;;;;;;;4.43;1.63;;;12.90;1.00;;;;;;4989199;28;20672;-76
2023/10/22 08:10:36;;;;;;;2.13;1.20;;;13.00;1.00;;;;;;4986695;28;20188;-75
2023/10/22 08:13:01;;;;;;;4.50;1.60;;;13.10;1.00;;;;;;4990971;28;20277;-75
2023/10/22 08:15:27;;;;;;;4.30;1.50;;;13.30;1.00;;;;;;4990721;28;20727;-75
2023/10/22 08:17:52;;;;;;;8.83;1.67;;;13.70;1.00;;;;;;5005504;28;20180;-75
2023/10/22 08:20:18;;;;;;;4.20;1.50;;;14.10;1.00;;;;;;4989369;28;20183;-76
2023/10/22 08:22:43;;;;;;;3.37;1.83;;;14.40;1.00;;;;;;4990676;28;20191;-74
2023/10/22 08:25:09;;;;;;;2.80;1.60;;;14.90;1.00;;;;;;4990234;28;20240;-74
2023/10/22 08:27:34;;;;;;;3.70;1.80;;;14.90;1.00;;;;;;4989684;28;20225;-75
2023/10/22 08:30:00;;;;;;;1.80;1.20;;;15.10;1.00;;;;;;4990637;28;20194;-75
2023/10/22 08:32:25;;;;;;;9.93;1.43;;;15.20;1.00;;;;;;4990431;28;20597;-75
2023/10/22 08:34:51;;;;;;;5.50;1.47;;;15.40;1.00;;;;;;4990130;28;20246;-76
2023/10/22 08:37:16;;;;;;;3.70;1.50;;;15.40;1.00;;;;;;4992581;28;20249;-75
2023/10/22 08:39:42;;;;;;;4.03;1.20;;;15.60;1.00;;;;;;4993294;28;20574;-75
2023/10/22 08:42:16;;;;;;;2.50;1.30;;;16.70;1.00;;;;;;4993697;28;20250;-75
2023/10/22 08:44:48;;;;;;;5.60;1.77;;;17.90;1.00;;;;;;4993747;28;20223;-75
2023/10/22 08:47:13;;;;;;;6.70;2.03;;;18.80;1.00;;;;;;4993011;28;20519;-74
2023/10/22 08:49:40;;;;;;;5.17;1.70;;;19.00;1.00;;;;;;5008926;28;20948;-75
2023/10/22 08:52:06;;;;;;;5.47;1.60;;;19.90;1.00;;;;;;4993551;28;20249;-76
2023/10/22 08:54:32;;;;;;;5.30;1.90;;;20.20;1.00;;;;;;4993268;28;20596;-75
2023/10/22 08:56:59;;;;;;;3.53;1.60;;;20.40;1.00;;;;;;4992940;28;20933;-75
2023/10/22 08:59:24;;;;;;;4.33;1.43;;;20.40;1.00;;;;;;4993891;28;20209;-75
2023/10/22 09:01:50;;;;;;;4.97;1.80;;;20.00;1.00;;;;;;5008436;28;20924;-76
2023/10/22 09:04:17;;;;;;;6.73;1.80;;;19.90;1.00;;;;;;4993787;28;20198;-76
2023/10/22 09:06:42;;;;;;;5.43;1.70;;;20.90;1.00;;;;;;4992827;28;20234;-75
2023/10/22 09:09:08;;;;;;;5.47;1.90;;;21.80;1.00;;;;;;4993522;28;20469;-75
2023/10/22 09:11:35;;;;;;;4.60;1.73;;;21.80;1.00;;;;;;4993571;28;20182;-75
2023/10/22 09:14:01;;;;;;;9.60;2.07;;;22.40;1.00;;;;;;4993672;28;20696;-76
2023/10/22 09:16:31;;;;;;;5.97;1.90;;;24.30;1.00;;;;;;4993734;28;20553;-75
2023/10/22 09:18:57;;;;;;;11.00;1.93;;;24.30;1.00;;;;;;4993783;28;20186;-76
2023/10/22 09:21:23;;;;;;;8.17;2.03;;;25.20;1.00;;;;;;4993342;28;20453;-75
2023/10/22 09:24:04;;;;;;;5.97;1.70;;;26.40;1.00;;;;;;4993009;28;20788;-75
2023/10/22 09:26:46;;;;;;;5.90;1.80;;;26.20;1.00;;;;;;4988681;28;20503;-76
2023/10/22 09:29:12;;;;;;;4.40;1.60;;;26.40;1.00;;;;;;4986116;28;20214;-75
2023/10/22 09:31:38;;;;;;;4.70;1.57;;;25.50;1.00;;;;;;5007643;28;20302;-76
2023/10/22 09:34:03;;;;;;;4.27;1.63;;;25.60;1.00;;;;;;5007986;28;20276;-76
2023/10/22 09:36:29;;;;;;;7.73;2.13;;;26.40;1.00;;;;;;5007804;28;20221;-75
2023/10/22 09:38:55;;;;;;;5.73;1.63;;;27.00;1.00;;;;;;4993077;28;20788;-76
2023/10/22 09:41:27;;;;;;;5.20;1.63;;;26.70;1.00;;;;;;4993043;28;20186;-76
2023/10/22 09:43:54;;;;;;;9.50;2.00;;;26.50;1.00;;;;;;4992649;28;20268;-76
2023/10/22 09:46:21;;;;;;;6.60;1.60;;;27.10;1.00;;;;;;4992791;28;20220;-76
2023/10/22 09:48:50;;;;;;;7.63;1.60;;;28.10;1.00;;;;;;4991560;28;20190;-77
2023/10/22 09:51:17;;;;;;;7.90;1.90;;;27.40;1.00;;;;;;4992751;28;20687;-75
2023/10/22 09:53:51;;;;;;;6.70;1.73;;;26.70;1.00;;;;;;4992557;28;20217;-78
2023/10/22 09:56:20;;;;;;;4.87;1.37;;;27.10;1.00;;;;;;4987404;28;20289;-76
2023/10/22 09:58:48;;;;;;;5.13;1.70;;;28.40;1.00;;;;;;4989989;28;20193;-76
2023/10/22 10:01:15;;;;;;;5.45;1.80;;;29.30;1.00;;;;;;5007481;28;20209;-76
2023/10/22 10:03:43;;;;;;;7.80;1.70;;;28.80;1.00;;;;;;4992658;28;20196;-75
2023/10/22 10:06:09;;;;;;;5.28;1.75;;;28.50;1.00;;;;;;4992226;28;20213;-76
2023/10/22 10:08:39;;;;;;;6.13;1.83;;;28.30;1.00;;;;;;4992551;28;20191;-76
2023/10/22 10:11:06;;;;;;;6.70;1.57;;;26.80;1.00;;;;;;4985382;28;20190;-76
2023/10/22 10:13:32;;;;;;;5.20;1.90;;;26.60;1.00;;;;;;4992475;28;20197;-75
2023/10/22 10:15:59;;;;;;;5.20;1.90;;;25.90;1.00;;;;;;4992175;28;20210;-75
2023/10/22 10:19:00;;;;;;;6.00;1.77;;;24.80;1.00;;;;;;5007631;28;20775;-75
2023/10/22 10:21:36;;;;;;;7.83;2.10;;;25.20;1.00;;;;;;4992360;28;20182;-76
2023/10/22 10:24:17;;;;;;;6.47;2.00;;;26.10;1.00;;;;;;5006846;28;20473;-76
2023/10/22 10:26:44;;;;;;;5.20;1.50;;;28.00;1.00;;;;;;5006598;28;20770;-74
2023/10/22 10:29:31;;;;;;;4.80;1.87;;;28.20;1.00;;;;;;4992700;28;20183;-76
2023/10/22 10:32:15;;;;;;;5.83;1.97;;;28.30;1.00;;;;;;4991931;28;20185;-76
2023/10/22 10:34:50;;;;;;;7.95;1.85;;;29.00;1.00;;;;;;4992147;28;20213;-76
2023/10/22 10:37:20;;;;;;;10.85;2.00;;;29.40;1.00;;;;;;5006646;28;20212;-76
2023/10/22 10:39:50;;;;;;;6.88;2.00;;;30.90;1.00;;;;;;4991901;28;20549;-75
2023/10/22 10:42:48;;;;;;;4.72;1.40;;;31.50;1.00;;;;;;5006376;28;20641;-76
2023/10/22 10:45:18;;;;;;;5.78;2.25;;;30.20;1.00;;;;;;4971159;28;20199;-76
2023/10/22 10:47:45;;;;;;;6.38;1.95;;;30.20;1.00;;;;;;4990458;28;20229;-77
2023/10/22 10:50:11;;;;;;;5.18;1.73;;;29.00;1.00;;;;;;4992135;28;20183;-76
2023/10/22 10:52:37;;;;;;;12.77;1.75;;;28.80;1.00;;;;;;4992109;28;20191;-76
2023/10/22 10:55:15;;;;;;;4.87;1.50;;;26.50;1.00;;;;;;4985549;28;20215;-77
2023/10/22 10:57:42;;;;;;;5.33;1.70;;;26.20;1.00;;;;;;5006831;28;20188;-76
2023/10/22 11:00:09;;;;;;;7.17;1.70;;;25.30;1.00;;;;;;5006195;28;20197;-75
2023/10/22 11:02:52;;;;;;;4.90;1.50;;;25.60;1.00;;;;;;4992061;28;20181;-75
2023/10/22 11:05:30;;;;;;;4.73;1.77;;;25.70;1.00;;;;;;4985002;28;20633;-76
2023/10/22 11:07:56;;;;;;;6.20;1.77;;;25.70;1.00;;;;;;4991781;28;20460;-75
2023/10/22 11:10:22;;;;;;;6.63;2.30;;;27.90;1.00;;;;;;4991836;28;20213;-76
2023/10/22 11:12:49;;;;;;;8.00;1.73;;;29.10;1.00;;;;;;4991352;28;20197;-74
2023/10/22 11:15:16;;;;;;;7.50;2.00;;;28.90;1.00;;;;;;4991393;28;20216;-76
2023/10/22 11:17:41;;;;;;;4.10;1.57;;;28.50;1.00;;;;;;4991537;28;20174;-76
2023/10/22 11:20:08;;;;;;;4.20;1.63;;;26.70;1.00;;;;;;4991617;28;20202;-75
2023/10/22 11:22:37;;;;;;;5.57;1.90;;;27.20;1.00;;;;;;4992016;28;20183;-75
2023/10/22 11:25:06;;;;;;;6.70;1.70;;;29.20;1.00;;;;;;4991136;28;20213;-77
2023/10/22 11:27:33;;;;;;;5.35;1.77;;;29.00;1.00;;;;;;4991626;28;20262;-75
2023/10/22 11:30:01;;;;;;;3.77;1.50;;;28.30;1.00;;;;;;4991530;28;20690;-77
2023/10/22 11:32:27;;;;;;;5.10;1.63;;;27.40;1.00;;;;;;4991553;28;20186;-76
2023/10/22 11:35:01;;;;;;;5.80;1.73;;;26.30;1.00;;;;;;4991224;28;20683;-76
2023/10/22 11:37:41;;;;;;;7.63;1.80;;;25.70;1.00;;;;;;4991757;28;20205;-76
2023/10/22 11:40:27;;;;;;;3.90;1.60;;;25.00;1.00;;;;;;4991492;28;20201;-76
2023/10/22 11:42:53;;;;;;;8.77;2.10;;;25.20;1.00;;;;;;4990759;28;20429;-76
2023/10/22 11:45:19;;;;;;;3.97;1.50;;;26.30;1.00;;;;;;4991263;28;20462;-76
2023/10/22 11:47:45;;;;;;;4.53;1.37;;;25.70;1.00;;;;;;4991536;28;20266;-76
2023/10/22 11:50:13;;;;;;;4.83;1.40;;;25.20;1.00;;;;;;5006000;28;20858;-77
2023/10/22 11:52:49;;;;;;;6.97;1.70;;;24.50;1.00;;;;;;4991637;28;20185;-76
2023/10/22 11:55:15;;;;;;;4.93;1.63;;;26.20;1.00;;;;;;4991116;28;21114;-76
2023/10/22 11:57:40;;;;;;;3.73;1.30;;;26.50;1.00;;;;;;4991303;28;20457;-76
2023/10/22 12:00:09;;;;;;;4.27;1.50;;;29.30;1.00;;;;;;4991354;28;20209;-77
2023/10/22 12:02:35;;;;;;;7.00;1.90;;;30.00;1.00;;;;;;4991279;28;20178;-76
2023/10/22 12:05:01;;;;;;;5.05;1.75;;;31.00;1.00;;;;;;4991092;28;20190;-77
2023/10/22 12:07:26;;;;;;;6.10;1.90;;;31.00;1.00;;;;;;4991137;28;20188;-77
2023/10/22 12:09:52;;;;;;;3.50;1.50;;;31.40;1.00;;;;;;4990797;28;20538;-74
2023/10/22 12:12:17;;;;;;;4.65;1.67;;;31.10;1.00;;;;;;4992945;28;20210;-76
2023/10/22 12:14:43;;;;;;;3.92;1.50;;;30.50;1.00;;;;;;4994699;28;20215;-75
2023/10/22 12:17:08;;;;;;;6.10;1.70;;;28.90;1.00;;;;;;4994436;28;20213;-76
2023/10/22 12:19:34;;;;;;;10.05;1.80;;;28.20;1.00;;;;;;4994560;28;20217;-75
2023/10/22 12:22:00;;;;;;;4.90;1.70;;;26.00;1.00;;;;;;4994371;28;20678;-76
2023/10/22 12:24:26;;;;;;;8.13;1.90;;;25.10;1.00;;;;;;4994731;28;20187;-76
2023/10/22 12:26:51;;;;;;;5.17;1.50;;;25.80;1.00;;;;;;4992660;28;20203;-76
2023/10/22 12:29:17;;;;;;;7.90;1.60;;;27.70;1.00;;;;;;4986612;28;20190;-76
2023/10/22 12:31:42;;;;;;;21.95;2.05;;;29.80;1.00;;;;;;4994523;28;20190;-76
2023/10/22 12:34:08;;;;;;;4.45;1.30;;;29.60;1.00;;;;;;4994267;28;20210;-76
2023/10/22 12:36:34;;;;;;;7.60;1.60;;;29.40;1.00;;;;;;4994735;28;20195;-76
2023/10/22 12:39:00;;;;;;;5.68;1.50;;;29.70;1.00;;;;;;4992729;28;20183;-75
2023/10/22 12:41:26;;;;;;;4.72;1.63;;;29.70;1.00;;;;;;4993835;28;20193;-75
2023/10/22 12:43:52;;;;;;;6.22;1.80;;;29.00;1.00;;;;;;4994240;28;20282;-76
2023/10/22 12:46:17;;;;;;;8.77;1.77;;;28.00;1.00;;;;;;5008919;28;20740;-75
2023/10/22 12:48:44;;;;;;;5.07;1.50;;;27.80;1.00;;;;;;4994174;28;20189;-75
2023/10/22 12:51:10;;;;;;;5.03;1.40;;;27.40;1.00;;;;;;4993588;28;20181;-75
2023/10/22 12:53:35;;;;;;;3.83;1.70;;;25.80;1.00;;;;;;5009008;28;20664;-75
2023/10/22 12:56:01;;;;;;;3.90;1.40;;;25.60;1.00;;;;;;4993391;28;20206;-76
2023/10/22 12:58:27;;;;;;;6.30;1.80;;;25.70;1.00;;;;;;4994206;28;20206;-76
2023/10/22 13:00:53;;;;;;;3.13;1.27;;;25.50;1.00;;;;;;4993746;28;20174;-76